createdAt,value
2018-09-09T08:20:25.554Z,58.10
2018-09-09T08:22:53.190Z,59.00
2018-09-09T08:25:20.809Z,59.60
2018-09-09T08:27:48.756Z,58.30
2018-09-09T08:30:17.324Z,55.90
2018-09-09T08:32:45.133Z,54.90
2018-09-09T08:35:12.726Z,52.00
2018-09-09T08:37:40.584Z,52.60
2018-09-09T08:40:08.455Z,54.40
2018-09-09T08:42:36.402Z,55.90
2018-09-09T08:45:04.582Z,57.10
2018-09-09T08:47:32.247Z,57.30
2018-09-09T08:50:00.155Z,56.80
2018-09-09T08:52:27.847Z,55.30
2018-09-09T08:54:55.588Z,55.30
2018-09-09T08:57:23.267Z,56.60
2018-09-09T08:59:50.943Z,55.80
2018-09-09T09:02:18.610Z,55.40
2018-09-09T09:04:46.235Z,56.10
2018-09-09T09:07:14.081Z,55.10
2018-09-09T09:09:41.847Z,54.50
2018-09-09T09:12:09.561Z,54.80
2018-09-09T09:14:38.962Z,54.90
2018-09-09T09:17:07.122Z,54.90
2018-09-09T09:19:35.223Z,54.00
2018-09-09T09:22:02.979Z,53.40
2018-09-09T09:24:30.868Z,53.10
2018-09-09T09:26:58.604Z,51.90
2018-09-09T09:29:30.862Z,52.40
2018-09-09T09:31:59.167Z,52.60
2018-09-09T09:34:26.929Z,54.10
2018-09-09T09:36:55.973Z,55.80
2018-09-09T09:39:26.539Z,56.30
2018-09-09T09:41:54.178Z,56.40
2018-09-09T09:44:21.890Z,54.50
2018-09-09T09:46:49.494Z,54.00
2018-09-09T09:49:17.993Z,54.30
2018-09-09T09:51:46.522Z,54.60
2018-09-09T09:54:14.235Z,54.20
2018-09-09T09:56:42.876Z,53.50
2018-09-09T09:59:10.490Z,52.80
2018-09-09T10:01:38.198Z,52.10
2018-09-09T10:04:06.010Z,52.80
2018-09-09T10:06:34.604Z,53.90
2018-09-09T10:09:02.573Z,53.40
2018-09-09T10:11:30.132Z,53.30
2018-09-09T10:13:58.022Z,52.50
2018-09-09T10:16:25.723Z,52.10
2018-09-09T10:18:53.632Z,53.10
2018-09-09T10:21:21.984Z,53.20
2018-09-09T10:23:50.257Z,53.30
2018-09-09T10:26:17.921Z,52.00
2018-09-09T10:28:45.518Z,51.00
2018-09-09T10:31:13.175Z,50.50
2018-09-09T10:36:19.870Z,49.00
2018-09-09T10:38:47.682Z,48.40
2018-09-09T10:41:15.379Z,49.30
2018-09-09T10:43:43.230Z,49.80
2018-09-09T10:46:11.060Z,50.30
2018-09-09T10:48:38.659Z,50.70
2018-09-09T10:51:06.344Z,51.40
2018-09-09T10:53:33.999Z,51.70
2018-09-09T10:56:02.189Z,51.00
2018-09-09T10:58:30.197Z,51.10
2018-09-09T11:00:57.870Z,52.20
2018-09-09T11:03:26.468Z,52.20
2018-09-09T11:05:55.230Z,52.60
2018-09-09T11:08:22.875Z,52.50
2018-09-09T11:10:57.355Z,51.50
2018-09-09T11:13:25.679Z,50.10
2018-09-09T11:15:53.979Z,49.70
2018-09-09T11:18:21.750Z,49.30
2018-09-09T11:20:49.400Z,49.20
2018-09-09T11:23:18.170Z,49.70
2018-09-09T11:25:45.897Z,50.00
2018-09-09T11:28:14.976Z,49.80
2018-09-09T11:30:42.940Z,48.60
2018-09-09T11:33:10.739Z,48.40
2018-09-09T11:35:38.400Z,48.00
2018-09-09T11:43:09.545Z,48.60
2018-09-09T11:45:37.508Z,48.20
2018-09-09T11:48:06.278Z,47.20
2018-09-09T11:50:34.717Z,46.70
2018-09-09T11:53:03.191Z,47.30
2018-09-09T11:55:33.989Z,47.40
2018-09-09T11:58:01.724Z,47.60
2018-09-09T12:00:29.462Z,47.40
2018-09-09T12:02:57.130Z,47.10
2018-09-09T12:05:24.799Z,45.70
2018-09-09T12:07:53.279Z,45.30
2018-09-09T12:10:20.887Z,44.30
2018-09-09T12:12:48.629Z,44.70
2018-09-09T12:15:16.269Z,44.80
2018-09-09T12:17:43.905Z,44.20
2018-09-09T12:20:11.534Z,43.30
2018-09-09T12:22:39.208Z,42.60
2018-09-09T12:25:06.845Z,43.60
2018-09-09T12:27:34.459Z,45.10
2018-09-09T12:30:02.107Z,45.20
2018-09-09T12:32:29.943Z,44.30
2018-09-09T12:34:57.467Z,44.30
2018-09-09T12:37:25.160Z,44.00
2018-09-09T12:39:53.510Z,43.00
2018-09-09T12:42:21.171Z,42.00
2018-09-09T12:47:00.208Z,40.60
2018-09-09T12:49:27.870Z,40.30
